sensor_id;sensor_type;location;lat;lon;timestamp;P1;P2;P0
55754;PMS5003;41674;52.290;-1.474;2023-05-14T00:01:25;41;32;
55754;PMS5003;41674;52.290;-1.474;2023-05-14T00:03:54;33;29;
55754;PMS5003;41674;52.290;-1.474;2023-05-14T00:06:24;34;32;
55754;PMS5003;41674;52.290;-1.474;2023-05-14T00:08:53;27;27;
55754;PMS5003;41674;52.290;-1.474;2023-05-14T00:11:23;25;21;
55754;PMS5003;41674;52.290;-1.474;2023-05-14T00:13:52;24;24;
55754;PMS5003;41674;52.290;-1.474;2023-05-14T00:16:21;28;26;
55754;PMS5003;41674;52.290;-1.474;2023-05-14T00:18:51;31;28;
55754;PMS5003;41674;52.290;-1.474;2023-05-14T00:21:20;27;23;
55754;PMS5003;41674;52.290;-1.474;2023-05-14T00:23:49;28;25;
55754;PMS5003;41674;52.290;-1.474;2023-05-14T00:26:19;28;26;
55754;PMS5003;41674;52.290;-1.474;2023-05-14T00:28:49;28;27;
55754;PMS5003;41674;52.290;-1.474;2023-05-14T00:31:18;35;28;
55754;PMS5003;41674;52.290;-1.474;2023-05-14T00:33:48;29;27;
55754;PMS5003;41674;52.290;-1.474;2023-05-14T00:36:17;34;29;
55754;PMS5003;41674;52.290;-1.474;2023-05-14T00:38:47;31;28;
55754;PMS5003;41674;52.290;-1.474;2023-05-14T00:41:17;32;30;
55754;PMS5003;41674;52.290;-1.474;2023-05-14T00:43:46;34;30;
55754;PMS5003;41674;52.290;-1.474;2023-05-14T00:46:15;33;29;
55754;PMS5003;41674;52.290;-1.474;2023-05-14T00:48:45;29;28;
55754;PMS5003;41674;52.290;-1.474;2023-05-14T00:51:14;34;29;
55754;PMS5003;41674;52.290;-1.474;2023-05-14T00:53:43;35;31;
55754;PMS5003;41674;52.290;-1.474;2023-05-14T00:56:17;29;26;
55754;PMS5003;41674;52.290;-1.474;2023-05-14T00:58:42;30;28;
55754;PMS5003;41674;52.290;-1.474;2023-05-14T01:01:11;34;29;
55754;PMS5003;41674;52.290;-1.474;2023-05-14T01:03:41;32;30;
55754;PMS5003;41674;52.290;-1.474;2023-05-14T01:06:11;35;31;
55754;PMS5003;41674;52.290;-1.474;2023-05-14T01:08:42;33;28;
55754;PMS5003;41674;52.290;-1.474;2023-05-14T01:11:10;31;29;
55754;PMS5003;41674;52.290;-1.474;2023-05-14T01:13:41;35;30;
55754;PMS5003;41674;52.290;-1.474;2023-05-14T01:16:10;32;29;
55754;PMS5003;41674;52.290;-1.474;2023-05-14T01:18:38;35;28;
55754;PMS5003;41674;52.290;-1.474;2023-05-14T01:23:37;33;31;
55754;PMS5003;41674;52.290;-1.474;2023-05-14T01:26:06;34;31;
55754;PMS5003;41674;52.290;-1.474;2023-05-14T01:28:36;31;30;
55754;PMS5003;41674;52.290;-1.474;2023-05-14T01:31:06;34;31;
55754;PMS5003;41674;52.290;-1.474;2023-05-14T01:33:34;31;30;
55754;PMS5003;41674;52.290;-1.474;2023-05-14T01:36:04;28;26;
55754;PMS5003;41674;52.290;-1.474;2023-05-14T01:38:33;33;30;
55754;PMS5003;41674;52.290;-1.474;2023-05-14T01:41:02;36;31;
55754;PMS5003;41674;52.290;-1.474;2023-05-14T01:43:31;37;33;
55754;PMS5003;41674;52.290;-1.474;2023-05-14T01:46:01;35;31;
55754;PMS5003;41674;52.290;-1.474;2023-05-14T01:48:30;33;31;
55754;PMS5003;41674;52.290;-1.474;2023-05-14T01:50:59;38;34;
55754;PMS5003;41674;52.290;-1.474;2023-05-14T01:53:28;37;32;
55754;PMS5003;41674;52.290;-1.474;2023-05-14T01:55:58;35;33;
55754;PMS5003;41674;52.290;-1.474;2023-05-14T01:58:27;29;29;
55754;PMS5003;41674;52.290;-1.474;2023-05-14T02:00:56;33;31;
55754;PMS5003;41674;52.290;-1.474;2023-05-14T02:03:26;37;28;
55754;PMS5003;41674;52.290;-1.474;2023-05-14T02:05:55;29;26;
55754;PMS5003;41674;52.290;-1.474;2023-05-14T02:08:25;27;27;
55754;PMS5003;41674;52.290;-1.474;2023-05-14T02:10:55;35;31;
55754;PMS5003;41674;52.290;-1.474;2023-05-14T02:13:24;32;29;
55754;PMS5003;41674;52.290;-1.474;2023-05-14T02:15:53;28;27;
55754;PMS5003;41674;52.290;-1.474;2023-05-14T02:18:23;31;30;
55754;PMS5003;41674;52.290;-1.474;2023-05-14T02:20:53;33;30;
55754;PMS5003;41674;52.290;-1.474;2023-05-14T02:23:22;39;37;
55754;PMS5003;41674;52.290;-1.474;2023-05-14T02:25:52;38;36;
55754;PMS5003;41674;52.290;-1.474;2023-05-14T02:28:21;42;36;
55754;PMS5003;41674;52.290;-1.474;2023-05-14T02:30:51;37;34;
55754;PMS5003;41674;52.290;-1.474;2023-05-14T02:33:20;40;38;
55754;PMS5003;41674;52.290;-1.474;2023-05-14T02:35:50;51;46;
55754;PMS5003;41674;52.290;-1.474;2023-05-14T02:38:19;52;44;
55754;PMS5003;41674;52.290;-1.474;2023-05-14T02:43:18;41;39;
55754;PMS5003;41674;52.290;-1.474;2023-05-14T02:45:48;47;43;
55754;PMS5003;41674;52.290;-1.474;2023-05-14T02:48:17;49;40;
55754;PMS5003;41674;52.290;-1.474;2023-05-14T02:50:48;42;39;
55754;PMS5003;41674;52.290;-1.474;2023-05-14T02:53:17;50;40;
55754;PMS5003;41674;52.290;-1.474;2023-05-14T02:55:46;44;37;
55754;PMS5003;41674;52.290;-1.474;2023-05-14T02:58:16;52;42;
55754;PMS5003;41674;52.290;-1.474;2023-05-14T03:00:45;55;45;
55754;PMS5003;41674;52.290;-1.474;2023-05-14T03:03:15;50;44;
55754;PMS5003;41674;52.290;-1.474;2023-05-14T03:05:45;47;42;
55754;PMS5003;41674;52.290;-1.474;2023-05-14T03:08:14;46;39;
55754;PMS5003;41674;52.290;-1.474;2023-05-14T03:10:43;41;38;
55754;PMS5003;41674;52.290;-1.474;2023-05-14T03:13:13;46;39;
55754;PMS5003;41674;52.290;-1.474;2023-05-14T03:15:42;41;36;
55754;PMS5003;41674;52.290;-1.474;2023-05-14T03:18:11;47;41;
55754;PMS5003;41674;52.290;-1.474;2023-05-14T03:20:41;47;41;
55754;PMS5003;41674;52.290;-1.474;2023-05-14T03:23:10;54;47;
55754;PMS5003;41674;52.290;-1.474;2023-05-14T03:25:40;46;42;
55754;PMS5003;41674;52.290;-1.474;2023-05-14T03:28:09;52;45;
55754;PMS5003;41674;52.290;-1.474;2023-05-14T03:30:39;47;42;
55754;PMS5003;41674;52.290;-1.474;2023-05-14T03:33:08;52;45;
55754;PMS5003;41674;52.290;-1.474;2023-05-14T03:35:37;53;45;
55754;PMS5003;41674;52.290;-1.474;2023-05-14T03:38:06;51;48;
55754;PMS5003;41674;52.290;-1.474;2023-05-14T03:40:36;52;46;
55754;PMS5003;41674;52.290;-1.474;2023-05-14T03:43:06;45;42;
55754;PMS5003;41674;52.290;-1.474;2023-05-14T03:45:35;52;42;
55754;PMS5003;41674;52.290;-1.474;2023-05-14T03:48:05;55;48;
55754;PMS5003;41674;52.290;-1.474;2023-05-14T03:50:35;44;40;
55754;PMS5003;41674;52.290;-1.474;2023-05-14T03:53:04;46;40;
55754;PMS5003;41674;52.290;-1.474;2023-05-14T03:55:34;49;44;
55754;PMS5003;41674;52.290;-1.474;2023-05-14T03:58:03;48;46;
55754;PMS5003;41674;52.290;-1.474;2023-05-14T04:00:33;47;42;
55754;PMS5003;41674;52.290;-1.474;2023-05-14T04:03:02;53;46;
55754;PMS5003;41674;52.290;-1.474;2023-05-14T04:05:32;41;40;
55754;PMS5003;41674;52.290;-1.474;2023-05-14T04:08:01;51;44;
55754;PMS5003;41674;52.290;-1.474;2023-05-14T04:10:30;48;43;
55754;PMS5003;41674;52.290;-1.474;2023-05-14T04:13:00;49;39;
55754;PMS5003;41674;52.290;-1.474;2023-05-14T04:15:29;46;41;
55754;PMS5003;41674;52.290;-1.474;2023-05-14T04:17:59;46;43;
55754;PMS5003;41674;52.290;-1.474;2023-05-14T04:20:28;43;41;
55754;PMS5003;41674;52.290;-1.474;2023-05-14T04:22:58;49;43;
55754;PMS5003;41674;52.290;-1.474;2023-05-14T04:25:27;49;43;
55754;PMS5003;41674;52.290;-1.474;2023-05-14T04:30:26;44;40;
55754;PMS5003;41674;52.290;-1.474;2023-05-14T04:32:55;49;45;
55754;PMS5003;41674;52.290;-1.474;2023-05-14T04:35:25;46;42;
55754;PMS5003;41674;52.290;-1.474;2023-05-14T04:37:54;49;42;
55754;PMS5003;41674;52.290;-1.474;2023-05-14T04:40:24;39;37;
55754;PMS5003;41674;52.290;-1.474;2023-05-14T04:42:53;40;37;
55754;PMS5003;41674;52.290;-1.474;2023-05-14T04:45:23;46;40;
55754;PMS5003;41674;52.290;-1.474;2023-05-14T04:47:52;42;37;
55754;PMS5003;41674;52.290;-1.474;2023-05-14T04:50:22;45;40;
55754;PMS5003;41674;52.290;-1.474;2023-05-14T04:52:52;47;40;
55754;PMS5003;41674;52.290;-1.474;2023-05-14T04:55:21;48;45;
55754;PMS5003;41674;52.290;-1.474;2023-05-14T04:57:50;48;43;
55754;PMS5003;41674;52.290;-1.474;2023-05-14T05:00:20;54;46;
55754;PMS5003;41674;52.290;-1.474;2023-05-14T05:02:49;46;44;
55754;PMS5003;41674;52.290;-1.474;2023-05-14T05:05:19;49;42;
55754;PMS5003;41674;52.290;-1.474;2023-05-14T05:07:48;46;40;
55754;PMS5003;41674;52.290;-1.474;2023-05-14T05:10:18;45;40;
55754;PMS5003;41674;52.290;-1.474;2023-05-14T05:12:47;43;39;
55754;PMS5003;41674;52.290;-1.474;2023-05-14T05:15:16;47;43;
55754;PMS5003;41674;52.290;-1.474;2023-05-14T05:17:46;47;40;
55754;PMS5003;41674;52.290;-1.474;2023-05-14T05:20:15;44;39;
55754;PMS5003;41674;52.290;-1.474;2023-05-14T05:22:45;47;39;
55754;PMS5003;41674;52.290;-1.474;2023-05-14T05:25:15;43;36;
55754;PMS5003;41674;52.290;-1.474;2023-05-14T05:27:44;48;40;
55754;PMS5003;41674;52.290;-1.474;2023-05-14T05:30:13;42;39;
55754;PMS5003;41674;52.290;-1.474;2023-05-14T05:32:42;45;40;
55754;PMS5003;41674;52.290;-1.474;2023-05-14T05:35:12;41;37;
55754;PMS5003;41674;52.290;-1.474;2023-05-14T05:37:41;42;36;
55754;PMS5003;41674;52.290;-1.474;2023-05-14T05:40:11;44;38;
55754;PMS5003;41674;52.290;-1.474;2023-05-14T05:42:40;40;35;
55754;PMS5003;41674;52.290;-1.474;2023-05-14T05:45:10;37;35;
55754;PMS5003;41674;52.290;-1.474;2023-05-14T05:47:39;56;49;
55754;PMS5003;41674;52.290;-1.474;2023-05-14T05:50:09;38;33;
55754;PMS5003;41674;52.290;-1.474;2023-05-14T05:52:38;34;33;
55754;PMS5003;41674;52.290;-1.474;2023-05-14T05:55:07;43;40;
55754;PMS5003;41674;52.290;-1.474;2023-05-14T05:57:37;44;37;
55754;PMS5003;41674;52.290;-1.474;2023-05-14T06:00:07;46;41;
55754;PMS5003;41674;52.290;-1.474;2023-05-14T06:02:36;42;39;
55754;PMS5003;41674;52.290;-1.474;2023-05-14T06:05:06;46;41;
55754;PMS5003;41674;52.290;-1.474;2023-05-14T06:07:35;40;40;
55754;PMS5003;41674;52.290;-1.474;2023-05-14T06:10:06;45;42;
55754;PMS5003;41674;52.290;-1.474;2023-05-14T06:12:34;44;41;
55754;PMS5003;41674;52.290;-1.474;2023-05-14T06:15:03;42;37;
55754;PMS5003;41674;52.290;-1.474;2023-05-14T06:17:32;45;35;
55754;PMS5003;41674;52.290;-1.474;2023-05-14T06:20:01;48;45;
55754;PMS5003;41674;52.290;-1.474;2023-05-14T06:22:30;45;40;
55754;PMS5003;41674;52.290;-1.474;2023-05-14T06:25:00;46;41;
55754;PMS5003;41674;52.290;-1.474;2023-05-14T06:27:29;40;36;
55754;PMS5003;41674;52.290;-1.474;2023-05-14T06:29:59;47;40;
55754;PMS5003;41674;52.290;-1.474;2023-05-14T06:32:28;46;43;
55754;PMS5003;41674;52.290;-1.474;2023-05-14T06:34:57;39;34;
55754;PMS5003;41674;52.290;-1.474;2023-05-14T06:37:27;40;37;
55754;PMS5003;41674;52.290;-1.474;2023-05-14T06:39:56;36;36;
55754;PMS5003;41674;52.290;-1.474;2023-05-14T06:42:26;41;37;
55754;PMS5003;41674;52.290;-1.474;2023-05-14T06:44:56;36;31;
55754;PMS5003;41674;52.290;-1.474;2023-05-14T06:47:25;43;39;
55754;PMS5003;41674;52.290;-1.474;2023-05-14T06:49:55;47;42;
55754;PMS5003;41674;52.290;-1.474;2023-05-14T06:52:25;43;37;
55754;PMS5003;41674;52.290;-1.474;2023-05-14T06:54:55;38;36;
55754;PMS5003;41674;52.290;-1.474;2023-05-14T06:57:23;52;43;
55754;PMS5003;41674;52.290;-1.474;2023-05-14T06:59:53;54;42;
55754;PMS5003;41674;52.290;-1.474;2023-05-14T07:02:22;45;39;
55754;PMS5003;41674;52.290;-1.474;2023-05-14T07:04:51;44;40;
55754;PMS5003;41674;52.290;-1.474;2023-05-14T07:07:20;42;39;
55754;PMS5003;41674;52.290;-1.474;2023-05-14T07:09:50;48;41;
55754;PMS5003;41674;52.290;-1.474;2023-05-14T07:12:19;41;35;
55754;PMS5003;41674;52.290;-1.474;2023-05-14T07:14:49;42;36;
55754;PMS5003;41674;52.290;-1.474;2023-05-14T07:17:19;44;39;
55754;PMS5003;41674;52.290;-1.474;2023-05-14T07:19:48;45;38;
55754;PMS5003;41674;52.290;-1.474;2023-05-14T07:22:17;37;33;
55754;PMS5003;41674;52.290;-1.474;2023-05-14T07:24:46;45;40;
55754;PMS5003;41674;52.290;-1.474;2023-05-14T07:27:16;38;36;
55754;PMS5003;41674;52.290;-1.474;2023-05-14T07:29:45;40;37;
55754;PMS5003;41674;52.290;-1.474;2023-05-14T07:32:14;42;41;
55754;PMS5003;41674;52.290;-1.474;2023-05-14T07:34:44;47;40;
55754;PMS5003;41674;52.290;-1.474;2023-05-14T07:37:13;40;36;
55754;PMS5003;41674;52.290;-1.474;2023-05-14T07:39:43;45;41;
55754;PMS5003;41674;52.290;-1.474;2023-05-14T07:42:12;38;36;
55754;PMS5003;41674;52.290;-1.474;2023-05-14T07:44:42;46;37;
55754;PMS5003;41674;52.290;-1.474;2023-05-14T07:47:12;43;40;
55754;PMS5003;41674;52.290;-1.474;2023-05-14T07:49:42;36;33;
55754;PMS5003;41674;52.290;-1.474;2023-05-14T07:52:10;43;42;
55754;PMS5003;41674;52.290;-1.474;2023-05-14T07:54:40;43;38;
55754;PMS5003;41674;52.290;-1.474;2023-05-14T07:57:10;43;40;
55754;PMS5003;41674;52.290;-1.474;2023-05-14T07:59:39;44;40;
55754;PMS5003;41674;52.290;-1.474;2023-05-14T08:02:08;38;35;
55754;PMS5003;41674;52.290;-1.474;2023-05-14T08:04:38;48;39;
55754;PMS5003;41674;52.290;-1.474;2023-05-14T08:07:07;41;36;
55754;PMS5003;41674;52.290;-1.474;2023-05-14T08:09:37;41;37;
55754;PMS5003;41674;52.290;-1.474;2023-05-14T08:12:06;43;40;
55754;PMS5003;41674;52.290;-1.474;2023-05-14T08:14:35;34;33;
55754;PMS5003;41674;52.290;-1.474;2023-05-14T08:17:05;36;31;
55754;PMS5003;41674;52.290;-1.474;2023-05-14T08:19:34;38;33;
55754;PMS5003;41674;52.290;-1.474;2023-05-14T08:22:04;42;37;
55754;PMS5003;41674;52.290;-1.474;2023-05-14T08:24:33;45;38;
55754;PMS5003;41674;52.290;-1.474;2023-05-14T08:27:03;43;35;
55754;PMS5003;41674;52.290;-1.474;2023-05-14T08:29:33;39;37;
55754;PMS5003;41674;52.290;-1.474;2023-05-14T08:32:02;39;36;
55754;PMS5003;41674;52.290;-1.474;2023-05-14T08:34:32;41;37;
55754;PMS5003;41674;52.290;-1.474;2023-05-14T08:37:01;47;44;
55754;PMS5003;41674;52.290;-1.474;2023-05-14T08:39:30;48;38;
55754;PMS5003;41674;52.290;-1.474;2023-05-14T08:42:00;43;38;
55754;PMS5003;41674;52.290;-1.474;2023-05-14T08:44:30;42;36;
55754;PMS5003;41674;52.290;-1.474;2023-05-14T08:46:58;37;33;
55754;PMS5003;41674;52.290;-1.474;2023-05-14T08:49:30;44;38;
55754;PMS5003;41674;52.290;-1.474;2023-05-14T08:51:57;39;36;
55754;PMS5003;41674;52.290;-1.474;2023-05-14T08:54:26;41;37;
55754;PMS5003;41674;52.290;-1.474;2023-05-14T08:56:55;43;37;
55754;PMS5003;41674;52.290;-1.474;2023-05-14T08:59:24;45;36;
55754;PMS5003;41674;52.290;-1.474;2023-05-14T09:01:54;36;35;
55754;PMS5003;41674;52.290;-1.474;2023-05-14T09:04:23;43;38;
55754;PMS5003;41674;52.290;-1.474;2023-05-14T09:06:53;38;35;
55754;PMS5003;41674;52.290;-1.474;2023-05-14T09:09:22;47;42;
55754;PMS5003;41674;52.290;-1.474;2023-05-14T09:11:52;43;35;
55754;PMS5003;41674;52.290;-1.474;2023-05-14T09:14:22;41;38;
55754;PMS5003;41674;52.290;-1.474;2023-05-14T09:16:51;37;34;
55754;PMS5003;41674;52.290;-1.474;2023-05-14T09:19:20;42;37;
55754;PMS5003;41674;52.290;-1.474;2023-05-14T09:21:50;43;38;
55754;PMS5003;41674;52.290;-1.474;2023-05-14T09:24:19;46;40;
55754;PMS5003;41674;52.290;-1.474;2023-05-14T09:26:49;43;38;
55754;PMS5003;41674;52.290;-1.474;2023-05-14T09:29:18;49;43;
55754;PMS5003;41674;52.290;-1.474;2023-05-14T09:31:49;43;39;
55754;PMS5003;41674;52.290;-1.474;2023-05-14T09:34:22;45;41;
55754;PMS5003;41674;52.290;-1.474;2023-05-14T09:36:46;42;40;
55754;PMS5003;41674;52.290;-1.474;2023-05-14T09:39:16;44;43;
55754;PMS5003;41674;52.290;-1.474;2023-05-14T09:41:45;46;43;
55754;PMS5003;41674;52.290;-1.474;2023-05-14T09:44:15;47;44;
55754;PMS5003;41674;52.290;-1.474;2023-05-14T09:46:45;51;45;
55754;PMS5003;41674;52.290;-1.474;2023-05-14T09:49:14;54;46;
55754;PMS5003;41674;52.290;-1.474;2023-05-14T09:51:43;45;41;
55754;PMS5003;41674;52.290;-1.474;2023-05-14T09:54:12;52;47;
55754;PMS5003;41674;52.290;-1.474;2023-05-14T09:56:42;49;43;
55754;PMS5003;41674;52.290;-1.474;2023-05-14T09:59:11;49;43;
55754;PMS5003;41674;52.290;-1.474;2023-05-14T10:01:41;49;45;
55754;PMS5003;41674;52.290;-1.474;2023-05-14T10:04:10;51;47;
55754;PMS5003;41674;52.290;-1.474;2023-05-14T10:06:39;49;45;
55754;PMS5003;41674;52.290;-1.474;2023-05-14T10:09:09;51;48;
55754;PMS5003;41674;52.290;-1.474;2023-05-14T10:11:41;49;46;
55754;PMS5003;41674;52.290;-1.474;2023-05-14T10:14:08;59;48;
55754;PMS5003;41674;52.290;-1.474;2023-05-14T10:16:39;50;42;
55754;PMS5003;41674;52.290;-1.474;2023-05-14T10:19:07;48;45;
55754;PMS5003;41674;52.290;-1.474;2023-05-14T10:21:36;56;49;
55754;PMS5003;41674;52.290;-1.474;2023-05-14T10:24:06;55;46;
55754;PMS5003;41674;52.290;-1.474;2023-05-14T10:26:35;56;49;
55754;PMS5003;41674;52.290;-1.474;2023-05-14T10:29:04;40;39;
55754;PMS5003;41674;52.290;-1.474;2023-05-14T10:31:45;48;45;
55754;PMS5003;41674;52.290;-1.474;2023-05-14T10:34:03;49;47;
55754;PMS5003;41674;52.290;-1.474;2023-05-14T10:36:33;51;43;
55754;PMS5003;41674;52.290;-1.474;2023-05-14T10:39:02;42;39;
55754;PMS5003;41674;52.290;-1.474;2023-05-14T10:41:31;48;43;
55754;PMS5003;41674;52.290;-1.474;2023-05-14T10:44:06;47;41;
55754;PMS5003;41674;52.290;-1.474;2023-05-14T10:46:30;44;40;
55754;PMS5003;41674;52.290;-1.474;2023-05-14T10:49:00;42;39;
55754;PMS5003;41674;52.290;-1.474;2023-05-14T10:51:29;37;34;
55754;PMS5003;41674;52.290;-1.474;2023-05-14T10:53:59;40;34;
55754;PMS5003;41674;52.290;-1.474;2023-05-14T10:56:28;37;32;
55754;PMS5003;41674;52.290;-1.474;2023-05-14T10:58:58;30;29;
55754;PMS5003;41674;52.290;-1.474;2023-05-14T11:01:28;34;30;
55754;PMS5003;41674;52.290;-1.474;2023-05-14T11:03:57;31;28;
55754;PMS5003;41674;52.290;-1.474;2023-05-14T11:06:27;33;29;
55754;PMS5003;41674;52.290;-1.474;2023-05-14T11:08:57;37;32;
55754;PMS5003;41674;52.290;-1.474;2023-05-14T11:11:26;33;30;
55754;PMS5003;41674;52.290;-1.474;2023-05-14T11:13:56;33;32;
55754;PMS5003;41674;52.290;-1.474;2023-05-14T11:16:26;31;30;
55754;PMS5003;41674;52.290;-1.474;2023-05-14T11:18:59;36;32;
55754;PMS5003;41674;52.290;-1.474;2023-05-14T11:21:24;35;31;
55754;PMS5003;41674;52.290;-1.474;2023-05-14T11:23:53;34;28;
55754;PMS5003;41674;52.290;-1.474;2023-05-14T11:26:24;38;33;
55754;PMS5003;41674;52.290;-1.474;2023-05-14T11:28:53;35;32;
55754;PMS5003;41674;52.290;-1.474;2023-05-14T11:31:21;29;26;
55754;PMS5003;41674;52.290;-1.474;2023-05-14T11:33:51;24;23;
55754;PMS5003;41674;52.290;-1.474;2023-05-14T11:36:21;27;21;
55754;PMS5003;41674;52.290;-1.474;2023-05-14T11:38:51;25;22;
55754;PMS5003;41674;52.290;-1.474;2023-05-14T11:41:20;27;19;
55754;PMS5003;41674;52.290;-1.474;2023-05-14T11:43:49;21;20;
55754;PMS5003;41674;52.290;-1.474;2023-05-14T11:46:19;22;19;
55754;PMS5003;41674;52.290;-1.474;2023-05-14T11:48:49;18;17;
55754;PMS5003;41674;52.290;-1.474;2023-05-14T11:51:18;19;17;
55754;PMS5003;41674;52.290;-1.474;2023-05-14T11:53:47;15;15;
55754;PMS5003;41674;52.290;-1.474;2023-05-14T11:56:17;18;16;
55754;PMS5003;41674;52.290;-1.474;2023-05-14T11:58:47;21;20;
55754;PMS5003;41674;52.290;-1.474;2023-05-14T12:01:16;18;16;
55754;PMS5003;41674;52.290;-1.474;2023-05-14T12:03:46;19;18;
55754;PMS5003;41674;52.290;-1.474;2023-05-14T12:06:15;20;16;
55754;PMS5003;41674;52.290;-1.474;2023-05-14T12:08:46;19;18;
55754;PMS5003;41674;52.290;-1.474;2023-05-14T12:11:14;19;16;
55754;PMS5003;41674;52.290;-1.474;2023-05-14T12:13:44;20;19;
55754;PMS5003;41674;52.290;-1.474;2023-05-14T12:16:13;17;17;
55754;PMS5003;41674;52.290;-1.474;2023-05-14T12:18:42;17;15;
55754;PMS5003;41674;52.290;-1.474;2023-05-14T12:21:11;17;15;
55754;PMS5003;41674;52.290;-1.474;2023-05-14T12:23:41;19;17;
55754;PMS5003;41674;52.290;-1.474;2023-05-14T12:26:11;11;11;
55754;PMS5003;41674;52.290;-1.474;2023-05-14T12:28:40;12;12;
55754;PMS5003;41674;52.290;-1.474;2023-05-14T12:31:09;13;12;
55754;PMS5003;41674;52.290;-1.474;2023-05-14T12:33:39;10;10;
55754;PMS5003;41674;52.290;-1.474;2023-05-14T12:36:08;11;11;
55754;PMS5003;41674;52.290;-1.474;2023-05-14T12:38:38;18;13;
55754;PMS5003;41674;52.290;-1.474;2023-05-14T12:41:07;14;13;
55754;PMS5003;41674;52.290;-1.474;2023-05-14T12:43:37;12;12;
55754;PMS5003;41674;52.290;-1.474;2023-05-14T12:46:06;14;14;
55754;PMS5003;41674;52.290;-1.474;2023-05-14T12:48:36;15;15;
55754;PMS5003;41674;52.290;-1.474;2023-05-14T12:51:05;13;12;
55754;PMS5003;41674;52.290;-1.474;2023-05-14T12:53:34;15;15;
55754;PMS5003;41674;52.290;-1.474;2023-05-14T12:56:04;13;12;
55754;PMS5003;41674;52.290;-1.474;2023-05-14T12:58:33;16;14;
55754;PMS5003;41674;52.290;-1.474;2023-05-14T13:01:03;11;11;
55754;PMS5003;41674;52.290;-1.474;2023-05-14T13:03:32;12;11;
55754;PMS5003;41674;52.290;-1.474;2023-05-14T13:06:02;13;13;
55754;PMS5003;41674;52.290;-1.474;2023-05-14T13:08:31;11;11;
55754;PMS5003;41674;52.290;-1.474;2023-05-14T13:11:01;13;13;
55754;PMS5003;41674;52.290;-1.474;2023-05-14T13:13:30;18;14;
55754;PMS5003;41674;52.290;-1.474;2023-05-14T13:16:00;13;13;
55754;PMS5003;41674;52.290;-1.474;2023-05-14T13:18:29;14;14;
55754;PMS5003;41674;52.290;-1.474;2023-05-14T13:20:59;18;18;
55754;PMS5003;41674;52.290;-1.474;2023-05-14T13:23:28;14;14;
55754;PMS5003;41674;52.290;-1.474;2023-05-14T13:25:57;18;16;
55754;PMS5003;41674;52.290;-1.474;2023-05-14T13:28:27;14;14;
55754;PMS5003;41674;52.290;-1.474;2023-05-14T13:31:03;15;15;
55754;PMS5003;41674;52.290;-1.474;2023-05-14T13:33:26;18;15;
55754;PMS5003;41674;52.290;-1.474;2023-05-14T13:35:55;19;16;
55754;PMS5003;41674;52.290;-1.474;2023-05-14T13:38:25;18;15;
55754;PMS5003;41674;52.290;-1.474;2023-05-14T13:40:54;17;16;
55754;PMS5003;41674;52.290;-1.474;2023-05-14T13:43:24;16;14;
55754;PMS5003;41674;52.290;-1.474;2023-05-14T13:45:54;13;13;
55754;PMS5003;41674;52.290;-1.474;2023-05-14T13:48:23;15;15;
55754;PMS5003;41674;52.290;-1.474;2023-05-14T13:50:52;13;12;
55754;PMS5003;41674;52.290;-1.474;2023-05-14T13:53:21;15;13;
55754;PMS5003;41674;52.290;-1.474;2023-05-14T13:55:50;15;15;
55754;PMS5003;41674;52.290;-1.474;2023-05-14T13:58:20;13;13;
55754;PMS5003;41674;52.290;-1.474;2023-05-14T14:00:49;11;10;
55754;PMS5003;41674;52.290;-1.474;2023-05-14T14:03:19;12;11;
55754;PMS5003;41674;52.290;-1.474;2023-05-14T14:05:48;12;11;
55754;PMS5003;41674;52.290;-1.474;2023-05-14T14:08:18;10;10;
55754;PMS5003;41674;52.290;-1.474;2023-05-14T14:10:47;9;9;
55754;PMS5003;41674;52.290;-1.474;2023-05-14T14:13:17;8;8;
55754;PMS5003;41674;52.290;-1.474;2023-05-14T14:15:46;12;10;
55754;PMS5003;41674;52.290;-1.474;2023-05-14T14:18:16;11;10;
55754;PMS5003;41674;52.290;-1.474;2023-05-14T14:20:45;9;8;
55754;PMS5003;41674;52.290;-1.474;2023-05-14T14:23:15;6;6;
55754;PMS5003;41674;52.290;-1.474;2023-05-14T14:25:44;6;6;
55754;PMS5003;41674;52.290;-1.474;2023-05-14T14:28:14;6;6;
55754;PMS5003;41674;52.290;-1.474;2023-05-14T14:30:43;7;7;
55754;PMS5003;41674;52.290;-1.474;2023-05-14T14:33:13;6;6;
55754;PMS5003;41674;52.290;-1.474;2023-05-14T14:35:42;6;6;
55754;PMS5003;41674;52.290;-1.474;2023-05-14T14:38:12;7;7;
55754;PMS5003;41674;52.290;-1.474;2023-05-14T14:40:41;5;5;
55754;PMS5003;41674;52.290;-1.474;2023-05-14T14:43:11;5;5;
55754;PMS5003;41674;52.290;-1.474;2023-05-14T14:45:40;8;8;
55754;PMS5003;41674;52.290;-1.474;2023-05-14T14:50:39;5;5;
55754;PMS5003;41674;52.290;-1.474;2023-05-14T14:53:09;7;7;
55754;PMS5003;41674;52.290;-1.474;2023-05-14T14:55:38;7;7;
55754;PMS5003;41674;52.290;-1.474;2023-05-14T14:58:08;7;7;
55754;PMS5003;41674;52.290;-1.474;2023-05-14T15:00:37;8;8;
55754;PMS5003;41674;52.290;-1.474;2023-05-14T15:03:07;9;8;
55754;PMS5003;41674;52.290;-1.474;2023-05-14T15:05:36;7;7;
55754;PMS5003;41674;52.290;-1.474;2023-05-14T15:08:05;6;6;
55754;PMS5003;41674;52.290;-1.474;2023-05-14T15:10:35;7;7;
55754;PMS5003;41674;52.290;-1.474;2023-05-14T15:13:05;9;7;
55754;PMS5003;41674;52.290;-1.474;2023-05-14T15:15:34;8;8;
55754;PMS5003;41674;52.290;-1.474;2023-05-14T15:18:03;7;7;
55754;PMS5003;41674;52.290;-1.474;2023-05-14T15:20:33;7;6;
55754;PMS5003;41674;52.290;-1.474;2023-05-14T15:23:03;7;5;
55754;PMS5003;41674;52.290;-1.474;2023-05-14T15:25:32;6;6;
55754;PMS5003;41674;52.290;-1.474;2023-05-14T15:28:01;7;7;
55754;PMS5003;41674;52.290;-1.474;2023-05-14T15:30:31;5;5;
55754;PMS5003;41674;52.290;-1.474;2023-05-14T15:33:00;7;7;
55754;PMS5003;41674;52.290;-1.474;2023-05-14T15:35:30;6;6;
55754;PMS5003;41674;52.290;-1.474;2023-05-14T15:37:59;6;6;
55754;PMS5003;41674;52.290;-1.474;2023-05-14T15:40:29;8;8;
55754;PMS5003;41674;52.290;-1.474;2023-05-14T15:42:58;12;7;
55754;PMS5003;41674;52.290;-1.474;2023-05-14T15:45:28;8;8;
55754;PMS5003;41674;52.290;-1.474;2023-05-14T15:47:57;9;8;
55754;PMS5003;41674;52.290;-1.474;2023-05-14T15:50:27;7;7;
55754;PMS5003;41674;52.290;-1.474;2023-05-14T15:52:56;9;9;
55754;PMS5003;41674;52.290;-1.474;2023-05-14T15:55:26;8;8;
55754;PMS5003;41674;52.290;-1.474;2023-05-14T15:57:55;9;7;
55754;PMS5003;41674;52.290;-1.474;2023-05-14T16:00:25;9;9;
55754;PMS5003;41674;52.290;-1.474;2023-05-14T16:02:59;9;8;
55754;PMS5003;41674;52.290;-1.474;2023-05-14T16:05:24;10;7;
55754;PMS5003;41674;52.290;-1.474;2023-05-14T16:07:53;5;5;
55754;PMS5003;41674;52.290;-1.474;2023-05-14T16:10:23;4;4;
55754;PMS5003;41674;52.290;-1.474;2023-05-14T16:12:52;6;4;
55754;PMS5003;41674;52.290;-1.474;2023-05-14T16:15:22;4;4;
55754;PMS5003;41674;52.290;-1.474;2023-05-14T16:17:51;4;4;
55754;PMS5003;41674;52.290;-1.474;2023-05-14T16:20:21;4;4;
55754;PMS5003;41674;52.290;-1.474;2023-05-14T16:22:50;5;4;
55754;PMS5003;41674;52.290;-1.474;2023-05-14T16:25:20;5;5;
55754;PMS5003;41674;52.290;-1.474;2023-05-14T16:27:49;5;5;
55754;PMS5003;41674;52.290;-1.474;2023-05-14T16:30:19;3;3;